sensor_id;sensor_type;location;lat;lon;timestamp;pressure;altitude;pressure_sealevel;temperature;humidity
33265;BME280;31404;53.974;-1.086;2023-04-22T00:00:35;100854.00;;;10.83;99.53
33265;BME280;31404;53.974;-1.086;2023-04-22T00:05:35;100846.43;;;9.88;100.00
33265;BME280;31404;53.974;-1.086;2023-04-22T00:10:35;100829.43;;;10.28;100.00
33265;BME280;31404;53.974;-1.086;2023-04-22T00:20:34;100813.62;;;11.93;93.63
33265;BME280;31404;53.974;-1.086;2023-04-22T00:25:34;100809.05;;;11.40;94.14
33265;BME280;31404;53.974;-1.086;2023-04-22T00:30:34;100794.72;;;11.92;92.59
33265;BME280;31404;53.974;-1.086;2023-04-22T00:35:33;100787.62;;;12.60;90.21
33265;BME280;31404;53.974;-1.086;2023-04-22T00:40:35;100775.28;;;12.19;91.14
33265;BME280;31404;53.974;-1.086;2023-04-22T00:45:36;100763.07;;;11.83;91.07
33265;BME280;31404;53.974;-1.086;2023-04-22T00:50:34;100753.31;;;12.90;88.11
33265;BME280;31404;53.974;-1.086;2023-04-22T00:55:34;100751.51;;;11.31;93.63
33265;BME280;31404;53.974;-1.086;2023-04-22T01:00:35;100742.24;;;11.58;92.80
33265;BME280;31404;53.974;-1.086;2023-04-22T01:05:35;100731.76;;;11.39;93.03
33265;BME280;31404;53.974;-1.086;2023-04-22T01:10:34;100725.70;;;11.57;93.18
33265;BME280;31404;53.974;-1.086;2023-04-22T01:15:34;100711.27;;;12.03;92.10
33265;BME280;31404;53.974;-1.086;2023-04-22T01:20:35;100705.16;;;12.16;91.92
33265;BME280;31404;53.974;-1.086;2023-04-22T01:25:34;100704.09;;;12.03;91.19
33265;BME280;31404;53.974;-1.086;2023-04-22T01:30:35;100692.22;;;11.11;94.24
33265;BME280;31404;53.974;-1.086;2023-04-22T01:35:36;100690.48;;;12.10;91.52
33265;BME280;31404;53.974;-1.086;2023-04-22T01:40:37;100686.59;;;11.85;92.24
33265;BME280;31404;53.974;-1.086;2023-04-22T01:45:34;100676.64;;;11.78;93.29
33265;BME280;31404;53.974;-1.086;2023-04-22T01:50:35;100662.14;;;11.59;93.72
33265;BME280;31404;53.974;-1.086;2023-04-22T01:55:35;100663.98;;;12.24;91.13
33265;BME280;31404;53.974;-1.086;2023-04-22T02:00:35;100657.66;;;11.91;91.89
33265;BME280;31404;53.974;-1.086;2023-04-22T02:05:35;100643.69;;;10.81;93.95
33265;BME280;31404;53.974;-1.086;2023-04-22T02:10:35;100639.96;;;11.35;93.95
33265;BME280;31404;53.974;-1.086;2023-04-22T02:15:34;100651.39;;;11.50;93.24
33265;BME280;31404;53.974;-1.086;2023-04-22T02:20:35;100640.41;;;12.28;91.28
33265;BME280;31404;53.974;-1.086;2023-04-22T02:25:35;100640.69;;;12.08;91.06
33265;BME280;31404;53.974;-1.086;2023-04-22T02:30:34;100634.29;;;12.54;89.42
33265;BME280;31404;53.974;-1.086;2023-04-22T02:35:34;100617.53;;;13.09;87.42
33265;BME280;31404;53.974;-1.086;2023-04-22T02:40:34;100620.29;;;12.71;88.43
33265;BME280;31404;53.974;-1.086;2023-04-22T02:45:34;100614.79;;;12.40;90.64
33265;BME280;31404;53.974;-1.086;2023-04-22T02:50:34;100604.21;;;11.80;91.44
33265;BME280;31404;53.974;-1.086;2023-04-22T02:55:34;100590.08;;;11.50;91.86
33265;BME280;31404;53.974;-1.086;2023-04-22T03:00:34;100586.44;;;11.55;93.58
33265;BME280;31404;53.974;-1.086;2023-04-22T03:05:35;100578.87;;;12.35;90.34
33265;BME280;31404;53.974;-1.086;2023-04-22T03:10:34;100567.36;;;11.59;93.18
33265;BME280;31404;53.974;-1.086;2023-04-22T03:15:34;100553.14;;;11.35;95.08
33265;BME280;31404;53.974;-1.086;2023-04-22T03:20:35;100543.78;;;10.99;96.51
33265;BME280;31404;53.974;-1.086;2023-04-22T03:25:35;100529.34;;;11.04;94.91
33265;BME280;31404;53.974;-1.086;2023-04-22T03:30:35;100517.07;;;11.62;93.47
33265;BME280;31404;53.974;-1.086;2023-04-22T03:35:35;100509.92;;;8.76;100.00
33265;BME280;31404;53.974;-1.086;2023-04-22T03:40:35;100499.26;;;10.37;100.00
33265;BME280;31404;53.974;-1.086;2023-04-22T03:45:35;100500.40;;;10.74;97.82
33265;BME280;31404;53.974;-1.086;2023-04-22T03:50:35;100490.01;;;11.42;94.42
33265;BME280;31404;53.974;-1.086;2023-04-22T03:55:35;100473.42;;;9.75;100.00
33265;BME280;31404;53.974;-1.086;2023-04-22T04:00:35;100458.11;;;10.11;99.90
33265;BME280;31404;53.974;-1.086;2023-04-22T04:05:35;100446.99;;;10.08;100.00
33265;BME280;31404;53.974;-1.086;2023-04-22T04:10:36;100444.70;;;10.80;98.33
33265;BME280;31404;53.974;-1.086;2023-04-22T04:15:35;100439.02;;;10.11;100.00
33265;BME280;31404;53.974;-1.086;2023-04-22T04:20:34;100433.14;;;10.60;99.37
33265;BME280;31404;53.974;-1.086;2023-04-22T04:25:34;100426.95;;;10.74;97.18
33265;BME280;31404;53.974;-1.086;2023-04-22T04:30:34;100418.88;;;10.55;97.79
33265;BME280;31404;53.974;-1.086;2023-04-22T04:35:35;100416.23;;;10.62;96.31
33265;BME280;31404;53.974;-1.086;2023-04-22T04:40:34;100412.27;;;10.47;97.01
33265;BME280;31404;53.974;-1.086;2023-04-22T04:45:34;100403.37;;;10.83;95.56
33265;BME280;31404;53.974;-1.086;2023-04-22T04:50:35;100397.87;;;11.63;92.52
33265;BME280;31404;53.974;-1.086;2023-04-22T04:55:35;100401.51;;;9.93;99.74
33265;BME280;31404;53.974;-1.086;2023-04-22T05:00:34;100397.86;;;10.70;97.60
33265;BME280;31404;53.974;-1.086;2023-04-22T05:05:34;100398.63;;;11.29;95.00
33265;BME280;31404;53.974;-1.086;2023-04-22T05:10:34;100407.36;;;9.69;100.00
33265;BME280;31404;53.974;-1.086;2023-04-22T05:15:34;100405.59;;;10.78;96.74
33265;BME280;31404;53.974;-1.086;2023-04-22T05:20:35;100398.98;;;11.54;94.02
33265;BME280;31404;53.974;-1.086;2023-04-22T05:25:38;100397.29;;;9.49;100.00
33265;BME280;31404;53.974;-1.086;2023-04-22T05:30:34;100393.81;;;10.47;98.33
33265;BME280;31404;53.974;-1.086;2023-04-22T05:35:34;100382.29;;;10.03;100.00
33265;BME280;31404;53.974;-1.086;2023-04-22T05:40:35;100380.07;;;10.12;100.00
33265;BME280;31404;53.974;-1.086;2023-04-22T05:45:34;100373.62;;;9.09;100.00
33265;BME280;31404;53.974;-1.086;2023-04-22T05:50:34;100372.93;;;9.36;100.00
33265;BME280;31404;53.974;-1.086;2023-04-22T05:55:34;100374.82;;;10.80;97.37
33265;BME280;31404;53.974;-1.086;2023-04-22T06:00:35;100372.62;;;9.57;100.00
33265;BME280;31404;53.974;-1.086;2023-04-22T06:05:35;100368.85;;;10.41;100.00
33265;BME280;31404;53.974;-1.086;2023-04-22T06:10:35;100358.22;;;11.23;97.56
33265;BME280;31404;53.974;-1.086;2023-04-22T06:15:35;100356.63;;;10.92;98.54
33265;BME280;31404;53.974;-1.086;2023-04-22T06:20:35;100352.52;;;10.88;97.35
33265;BME280;31404;53.974;-1.086;2023-04-22T06:25:34;100337.62;;;11.17;98.36
33265;BME280;31404;53.974;-1.086;2023-04-22T06:30:34;100329.72;;;12.40;92.34
33265;BME280;31404;53.974;-1.086;2023-04-22T06:35:34;100328.33;;;11.02;97.42
33265;BME280;31404;53.974;-1.086;2023-04-22T06:40:34;100322.22;;;11.51;94.86
33265;BME280;31404;53.974;-1.086;2023-04-22T06:45:34;100318.40;;;10.45;99.28
33265;BME280;31404;53.974;-1.086;2023-04-22T06:50:35;100315.20;;;10.83;98.80
33265;BME280;31404;53.974;-1.086;2023-04-22T06:55:35;100313.77;;;11.72;95.23
33265;BME280;31404;53.974;-1.086;2023-04-22T07:00:35;100313.39;;;12.03;93.58
33265;BME280;31404;53.974;-1.086;2023-04-22T07:05:34;100313.20;;;10.92;96.81
33265;BME280;31404;53.974;-1.086;2023-04-22T07:10:34;100312.62;;;10.36;99.98
33265;BME280;31404;53.974;-1.086;2023-04-22T07:15:34;100312.70;;;10.71;98.36
33265;BME280;31404;53.974;-1.086;2023-04-22T07:20:34;100303.35;;;11.31;96.12
33265;BME280;31404;53.974;-1.086;2023-04-22T07:25:34;100301.82;;;11.37;96.67
33265;BME280;31404;53.974;-1.086;2023-04-22T07:30:34;100297.88;;;11.28;96.65
33265;BME280;31404;53.974;-1.086;2023-04-22T07:35:35;100293.33;;;11.92;94.36
33265;BME280;31404;53.974;-1.086;2023-04-22T07:40:35;100291.77;;;11.40;95.82
33265;BME280;31404;53.974;-1.086;2023-04-22T07:45:34;100295.88;;;9.96;100.00
33265;BME280;31404;53.974;-1.086;2023-04-22T07:50:34;100291.60;;;9.60;100.00
33265;BME280;31404;53.974;-1.086;2023-04-22T07:55:34;100290.81;;;10.01;100.00
33265;BME280;31404;53.974;-1.086;2023-04-22T08:00:35;100292.82;;;10.51;100.00
33265;BME280;31404;53.974;-1.086;2023-04-22T08:05:35;100296.42;;;10.56;100.00
33265;BME280;31404;53.974;-1.086;2023-04-22T08:10:35;100290.74;;;9.32;100.00
33265;BME280;31404;53.974;-1.086;2023-04-22T08:15:35;100282.11;;;11.19;100.00
33265;BME280;31404;53.974;-1.086;2023-04-22T08:20:34;100285.07;;;9.46;100.00
33265;BME280;31404;53.974;-1.086;2023-04-22T08:25:35;100282.92;;;10.09;100.00
33265;BME280;31404;53.974;-1.086;2023-04-22T08:30:35;100283.33;;;9.56;100.00
33265;BME280;31404;53.974;-1.086;2023-04-22T08:35:34;100285.74;;;9.85;100.00
33265;BME280;31404;53.974;-1.086;2023-04-22T08:40:35;100283.38;;;10.22;100.00
33265;BME280;31404;53.974;-1.086;2023-04-22T08:45:37;100284.46;;;9.63;100.00
33265;BME280;31404;53.974;-1.086;2023-04-22T08:50:37;100278.74;;;9.49;100.00
33265;BME280;31404;53.974;-1.086;2023-04-22T08:55:35;100276.33;;;9.66;100.00
33265;BME280;31404;53.974;-1.086;2023-04-22T09:00:34;100274.77;;;9.28;100.00
33265;BME280;31404;53.974;-1.086;2023-04-22T09:05:38;100273.89;;;8.67;100.00
33265;BME280;31404;53.974;-1.086;2023-04-22T09:10:36;100270.24;;;9.21;100.00
33265;BME280;31404;53.974;-1.086;2023-04-22T09:15:34;100268.64;;;9.29;100.00
33265;BME280;31404;53.974;-1.086;2023-04-22T09:20:34;100270.49;;;8.97;100.00
33265;BME280;31404;53.974;-1.086;2023-04-22T09:25:34;100268.79;;;8.92;100.00
33265;BME280;31404;53.974;-1.086;2023-04-22T09:30:35;100275.37;;;8.16;100.00
33265;BME280;31404;53.974;-1.086;2023-04-22T09:35:36;100284.07;;;7.72;100.00
33265;BME280;31404;53.974;-1.086;2023-04-22T09:40:37;100278.22;;;8.74;100.00
33265;BME280;31404;53.974;-1.086;2023-04-22T09:45:36;100280.77;;;8.27;100.00
33265;BME280;31404;53.974;-1.086;2023-04-22T09:50:35;100275.52;;;9.33;100.00
33265;BME280;31404;53.974;-1.086;2023-04-22T09:55:37;100278.36;;;9.10;100.00
33265;BME280;31404;53.974;-1.086;2023-04-22T10:00:38;100279.14;;;7.54;100.00
33265;BME280;31404;53.974;-1.086;2023-04-22T10:05:35;100279.30;;;7.59;100.00
33265;BME280;31404;53.974;-1.086;2023-04-22T10:10:36;100282.04;;;6.97;100.00
33265;BME280;31404;53.974;-1.086;2023-04-22T10:15:37;100276.18;;;9.13;100.00
33265;BME280;31404;53.974;-1.086;2023-04-22T10:20:36;100276.60;;;7.69;100.00
33265;BME280;31404;53.974;-1.086;2023-04-22T10:25:35;100266.77;;;8.85;100.00
33265;BME280;31404;53.974;-1.086;2023-04-22T10:30:36;100256.89;;;8.61;100.00
33265;BME280;31404;53.974;-1.086;2023-04-22T10:35:34;100253.14;;;8.50;100.00
33265;BME280;31404;53.974;-1.086;2023-04-22T10:40:34;100256.65;;;7.10;100.00
33265;BME280;31404;53.974;-1.086;2023-04-22T10:45:34;100264.37;;;6.59;100.00
33265;BME280;31404;53.974;-1.086;2023-04-22T10:50:35;100274.83;;;6.27;100.00
33265;BME280;31404;53.974;-1.086;2023-04-22T11:05:36;100276.22;;;8.37;100.00
33265;BME280;31404;53.974;-1.086;2023-04-22T11:10:37;100281.06;;;7.62;100.00
33265;BME280;31404;53.974;-1.086;2023-04-22T11:15:36;100280.32;;;7.27;100.00
33265;BME280;31404;53.974;-1.086;2023-04-22T11:20:35;100274.27;;;8.61;100.00
33265;BME280;31404;53.974;-1.086;2023-04-22T11:25:35;100273.11;;;9.83;100.00
33265;BME280;31404;53.974;-1.086;2023-04-22T11:30:35;100272.60;;;8.78;100.00
33265;BME280;31404;53.974;-1.086;2023-04-22T11:35:35;100268.22;;;10.15;100.00
33265;BME280;31404;53.974;-1.086;2023-04-22T11:40:38;100269.14;;;9.37;100.00
33265;BME280;31404;53.974;-1.086;2023-04-22T11:45:36;100268.82;;;9.83;100.00
33265;BME280;31404;53.974;-1.086;2023-04-22T11:50:37;100263.08;;;9.57;100.00
33265;BME280;31404;53.974;-1.086;2023-04-22T12:00:36;100259.66;;;8.66;100.00
33265;BME280;31404;53.974;-1.086;2023-04-22T12:05:36;100257.83;;;9.03;100.00
33265;BME280;31404;53.974;-1.086;2023-04-22T12:20:35;100258.77;;;10.31;100.00
33265;BME280;31404;53.974;-1.086;2023-04-22T12:25:35;100266.83;;;9.55;100.00
33265;BME280;31404;53.974;-1.086;2023-04-22T12:30:35;100269.90;;;8.99;100.00
33265;BME280;31404;53.974;-1.086;2023-04-22T12:35:35;100263.94;;;9.34;100.00
33265;BME280;31404;53.974;-1.086;2023-04-22T12:40:35;100269.82;;;9.29;100.00
33265;BME280;31404;53.974;-1.086;2023-04-22T12:45:35;100268.06;;;8.90;100.00
33265;BME280;31404;53.974;-1.086;2023-04-22T12:50:34;100265.66;;;10.01;98.62
33265;BME280;31404;53.974;-1.086;2023-04-22T12:55:34;100265.44;;;10.86;95.68
33265;BME280;31404;53.974;-1.086;2023-04-22T13:00:34;100274.56;;;9.21;100.00
33265;BME280;31404;53.974;-1.086;2023-04-22T13:05:34;100272.90;;;9.94;98.21
33265;BME280;31404;53.974;-1.086;2023-04-22T13:10:34;100264.32;;;10.03;96.85
33265;BME280;31404;53.974;-1.086;2023-04-22T13:15:35;100259.14;;;11.31;92.54
33265;BME280;31404;53.974;-1.086;2023-04-22T13:20:36;100265.04;;;11.24;90.83
33265;BME280;31404;53.974;-1.086;2023-04-22T13:25:35;100266.69;;;10.68;94.84
33265;BME280;31404;53.974;-1.086;2023-04-22T13:30:35;100272.05;;;10.30;92.45
33265;BME280;31404;53.974;-1.086;2023-04-22T13:35:35;100266.28;;;9.92;95.25
33265;BME280;31404;53.974;-1.086;2023-04-22T13:40:35;100260.54;;;9.43;95.81
33265;BME280;31404;53.974;-1.086;2023-04-22T13:45:36;100253.55;;;10.80;89.32
33265;BME280;31404;53.974;-1.086;2023-04-22T13:50:35;100247.89;;;10.77;90.65
33265;BME280;31404;53.974;-1.086;2023-04-22T13:55:35;100244.86;;;12.09;86.50
33265;BME280;31404;53.974;-1.086;2023-04-22T14:00:35;100248.94;;;11.43;88.06
33265;BME280;31404;53.974;-1.086;2023-04-22T14:05:39;100241.37;;;12.06;85.02
33265;BME280;31404;53.974;-1.086;2023-04-22T14:10:35;100243.58;;;11.35;88.94
33265;BME280;31404;53.974;-1.086;2023-04-22T14:15:37;100244.21;;;11.03;87.96
33265;BME280;31404;53.974;-1.086;2023-04-22T14:20:38;100240.68;;;10.91;88.19
33265;BME280;31404;53.974;-1.086;2023-04-22T14:25:44;100232.98;;;12.30;82.23
33265;BME280;31404;53.974;-1.086;2023-04-22T14:30:40;100228.11;;;12.04;80.90
33265;BME280;31404;53.974;-1.086;2023-04-22T14:35:39;100235.03;;;11.68;85.40
33265;BME280;31404;53.974;-1.086;2023-04-22T14:40:35;100227.33;;;12.15;80.90
33265;BME280;31404;53.974;-1.086;2023-04-22T14:45:35;100228.10;;;12.90;79.26
33265;BME280;31404;53.974;-1.086;2023-04-22T14:50:42;100229.98;;;12.46;78.99
33265;BME280;31404;53.974;-1.086;2023-04-22T14:55:36;100233.31;;;12.58;78.35
33265;BME280;31404;53.974;-1.086;2023-04-22T15:00:38;100238.05;;;11.29;83.14
33265;BME280;31404;53.974;-1.086;2023-04-22T15:05:35;100231.56;;;12.47;77.91
33265;BME280;31404;53.974;-1.086;2023-04-22T15:10:34;100231.01;;;12.75;79.85
33265;BME280;31404;53.974;-1.086;2023-04-22T15:15:34;100232.31;;;13.53;74.20
33265;BME280;31404;53.974;-1.086;2023-04-22T15:20:36;100230.88;;;12.72;73.94
33265;BME280;31404;53.974;-1.086;2023-04-22T15:30:35;100229.85;;;13.38;72.70
33265;BME280;31404;53.974;-1.086;2023-04-22T15:40:35;100224.14;;;13.55;71.83
33265;BME280;31404;53.974;-1.086;2023-04-22T15:45:34;100223.83;;;12.22;72.69
33265;BME280;31404;53.974;-1.086;2023-04-22T15:50:36;100227.52;;;11.53;74.95
33265;BME280;31404;53.974;-1.086;2023-04-22T15:55:35;100224.30;;;12.86;69.75
33265;BME280;31404;53.974;-1.086;2023-04-22T16:00:35;100219.59;;;13.09;69.03
33265;BME280;31404;53.974;-1.086;2023-04-22T16:05:35;100219.72;;;13.87;67.84
33265;BME280;31404;53.974;-1.086;2023-04-22T16:10:35;100213.94;;;13.95;66.97
33265;BME280;31404;53.974;-1.086;2023-04-22T16:15:34;100211.20;;;12.78;69.86
33265;BME280;31404;53.974;-1.086;2023-04-22T16:20:35;100212.21;;;13.49;70.03
33265;BME280;31404;53.974;-1.086;2023-04-22T16:25:35;100209.33;;;12.76;70.21
33265;BME280;31404;53.974;-1.086;2023-04-22T16:30:35;100209.61;;;13.78;68.47
33265;BME280;31404;53.974;-1.086;2023-04-22T16:35:35;100201.94;;;14.50;64.32
33265;BME280;31404;53.974;-1.086;2023-04-22T16:40:36;100204.22;;;13.86;65.78
33265;BME280;31404;53.974;-1.086;2023-04-22T16:45:34;100205.82;;;13.86;64.42
33265;BME280;31404;53.974;-1.086;2023-04-22T16:50:34;100200.51;;;13.96;62.38
33265;BME280;31404;53.974;-1.086;2023-04-22T16:55:34;100189.19;;;17.17;56.64
33265;BME280;31404;53.974;-1.086;2023-04-22T17:00:34;100195.01;;;14.32;62.60
33265;BME280;31404;53.974;-1.086;2023-04-22T17:05:34;100190.70;;;13.84;62.12
33265;BME280;31404;53.974;-1.086;2023-04-22T17:10:35;100182.86;;;14.17;58.96
33265;BME280;31404;53.974;-1.086;2023-04-22T17:15:34;100185.74;;;14.79;58.73
33265;BME280;31404;53.974;-1.086;2023-04-22T17:20:35;100186.77;;;14.15;59.10
33265;BME280;31404;53.974;-1.086;2023-04-22T17:25:35;100182.11;;;14.26;58.23
33265;BME280;31404;53.974;-1.086;2023-04-22T17:30:35;100183.32;;;14.68;58.03
33265;BME280;31404;53.974;-1.086;2023-04-22T17:35:35;100184.29;;;14.18;56.36
33265;BME280;31404;53.974;-1.086;2023-04-22T17:40:35;100179.42;;;14.21;56.88
33265;BME280;31404;53.974;-1.086;2023-04-22T17:45:34;100182.48;;;12.57;56.93
33265;BME280;31404;53.974;-1.086;2023-04-22T17:50:34;100187.61;;;13.22;55.51
33265;BME280;31404;53.974;-1.086;2023-04-22T17:55:34;100186.46;;;12.61;56.41
33265;BME280;31404;53.974;-1.086;2023-04-22T18:00:36;100189.48;;;12.36;57.26
33265;BME280;31404;53.974;-1.086;2023-04-22T18:05:35;100188.11;;;13.61;55.42
33265;BME280;31404;53.974;-1.086;2023-04-22T18:10:36;100193.88;;;13.45;55.59
33265;BME280;31404;53.974;-1.086;2023-04-22T18:15:34;100191.28;;;12.53;56.97
33265;BME280;31404;53.974;-1.086;2023-04-22T18:20:35;100186.82;;;12.64;55.91
33265;BME280;31404;53.974;-1.086;2023-04-22T18:25:36;100185.32;;;12.81;55.18
33265;BME280;31404;53.974;-1.086;2023-04-22T18:30:34;100187.89;;;13.64;56.46
33265;BME280;31404;53.974;-1.086;2023-04-22T18:35:34;100189.78;;;13.71;56.68
33265;BME280;31404;53.974;-1.086;2023-04-22T18:40:34;100192.52;;;14.15;56.20
33265;BME280;31404;53.974;-1.086;2023-04-22T18:45:34;100197.95;;;13.21;57.95
33265;BME280;31404;53.974;-1.086;2023-04-22T18:55:34;100204.24;;;12.75;59.50
33265;BME280;31404;53.974;-1.086;2023-04-22T19:00:34;100203.33;;;13.48;58.19
33265;BME280;31404;53.974;-1.086;2023-04-22T19:10:35;100208.37;;;12.47;61.14
33265;BME280;31404;53.974;-1.086;2023-04-22T19:15:35;100201.71;;;12.32;62.09
33265;BME280;31404;53.974;-1.086;2023-04-22T19:20:34;100198.64;;;12.69;61.28
33265;BME280;31404;53.974;-1.086;2023-04-22T19:25:34;100205.05;;;12.48;62.48
33265;BME280;31404;53.974;-1.086;2023-04-22T19:30:34;100209.86;;;12.88;61.75
33265;BME280;31404;53.974;-1.086;2023-04-22T19:35:34;100203.80;;;13.31;60.72
33265;BME280;31404;53.974;-1.086;2023-04-22T19:40:35;100206.63;;;12.35;62.44
33265;BME280;31404;53.974;-1.086;2023-04-22T19:45:35;100206.25;;;12.72;61.65
33265;BME280;31404;53.974;-1.086;2023-04-22T19:50:35;100206.57;;;12.95;61.27
33265;BME280;31404;53.974;-1.086;2023-04-22T19:55:35;100206.75;;;13.07;61.56
33265;BME280;31404;53.974;-1.086;2023-04-22T20:00:35;100206.14;;;12.24;62.70
33265;BME280;31404;53.974;-1.086;2023-04-22T20:05:36;100205.43;;;13.10;61.54
33265;BME280;31404;53.974;-1.086;2023-04-22T20:10:35;100206.00;;;12.33;63.13
33265;BME280;31404;53.974;-1.086;2023-04-22T20:15:34;100209.72;;;11.63;64.88
33265;BME280;31404;53.974;-1.086;2023-04-22T20:20:35;100210.46;;;11.98;63.47
33265;BME280;31404;53.974;-1.086;2023-04-22T20:25:29;100208.68;;;11.99;63.37
33265;BME280;31404;53.974;-1.086;2023-04-22T20:30:36;100210.53;;;12.36;62.93
33265;BME280;31404;53.974;-1.086;2023-04-22T20:35:36;100210.04;;;12.29;63.03
33265;BME280;31404;53.974;-1.086;2023-04-22T20:40:35;100209.20;;;12.66;61.00
33265;BME280;31404;53.974;-1.086;2023-04-22T20:45:34;100217.66;;;11.86;62.60
33265;BME280;31404;53.974;-1.086;2023-04-22T20:50:34;100220.64;;;11.85;63.36
33265;BME280;31404;53.974;-1.086;2023-04-22T20:55:34;100214.24;;;12.49;61.70
33265;BME280;31404;53.974;-1.086;2023-04-22T21:00:34;100207.46;;;12.13;62.48
33265;BME280;31404;53.974;-1.086;2023-04-22T21:05:35;100213.46;;;12.92;61.07
33265;BME280;31404;53.974;-1.086;2023-04-22T21:10:35;100210.29;;;12.16;62.37
33265;BME280;31404;53.974;-1.086;2023-04-22T21:15:35;100210.98;;;13.43;59.31
33265;BME280;31404;53.974;-1.086;2023-04-22T21:25:35;100203.46;;;12.80;61.37
33265;BME280;31404;53.974;-1.086;2023-04-22T21:30:35;100198.97;;;13.02;60.54
33265;BME280;31404;53.974;-1.086;2023-04-22T21:35:34;100205.61;;;12.38;62.15
33265;BME280;31404;53.974;-1.086;2023-04-22T21:40:35;100200.57;;;12.72;61.00
33265;BME280;31404;53.974;-1.086;2023-04-22T21:45:35;100205.27;;;12.09;62.58
33265;BME280;31404;53.974;-1.086;2023-04-22T21:50:35;100206.71;;;11.99;62.85
33265;BME280;31404;53.974;-1.086;2023-04-22T21:55:35;100197.63;;;12.84;61.98
33265;BME280;31404;53.974;-1.086;2023-04-22T22:00:35;100204.59;;;11.71;64.05
33265;BME280;31404;53.974;-1.086;2023-04-22T22:05:35;100205.26;;;11.39;65.38
33265;BME280;31404;53.974;-1.086;2023-04-22T22:10:35;100201.73;;;12.87;61.55
33265;BME280;31404;53.974;-1.086;2023-04-22T22:15:35;100210.39;;;12.14;62.52
33265;BME280;31404;53.974;-1.086;2023-04-22T22:20:35;100212.76;;;13.19;61.00
33265;BME280;31404;53.974;-1.086;2023-04-22T22:25:36;100208.86;;;13.75;60.32
33265;BME280;31404;53.974;-1.086;2023-04-22T22:30:35;100210.22;;;12.81;61.39
33265;BME280;31404;53.974;-1.086;2023-04-22T22:35:34;100207.52;;;14.01;59.48
33265;BME280;31404;53.974;-1.086;2023-04-22T22:40:35;100209.00;;;14.08;59.22
33265;BME280;31404;53.974;-1.086;2023-04-22T22:45:34;100204.38;;;13.94;60.75
33265;BME280;31404;53.974;-1.086;2023-04-22T22:50:34;100202.44;;;12.83;63.84
33265;BME280;31404;53.974;-1.086;2023-04-22T22:55:34;100199.44;;;13.70;62.40
33265;BME280;31404;53.974;-1.086;2023-04-22T23:00:36;100190.36;;;14.09;59.95
33265;BME280;31404;53.974;-1.086;2023-04-22T23:05:34;100188.18;;;14.01;59.61
33265;BME280;31404;53.974;-1.086;2023-04-22T23:10:34;100181.27;;;14.82;57.54
33265;BME280;31404;53.974;-1.086;2023-04-22T23:15:34;100177.53;;;14.49;57.73
33265;BME280;31404;53.974;-1.086;2023-04-22T23:20:35;100174.02;;;14.24;58.34
33265;BME280;31404;53.974;-1.086;2023-04-22T23:25:35;100169.82;;;14.48;57.08
33265;BME280;31404;53.974;-1.086;2023-04-22T23:30:35;100169.45;;;14.38;57.47
33265;BME280;31404;53.974;-1.086;2023-04-22T23:35:35;100164.44;;;14.72;56.78
33265;BME280;31404;53.974;-1.086;2023-04-22T23:40:34;100158.60;;;14.74;56.84
33265;BME280;31404;53.974;-1.086;2023-04-22T23:45:34;100162.21;;;12.87;61.13
33265;BME280;31404;53.974;-1.086;2023-04-22T23:50:34;100155.03;;;12.46;62.36
33265;BME280;31404;53.974;-1.086;2023-04-22T23:55:35;100158.98;;;13.03;62.38
